Time;durP1;ratioP1;P1;durP2;ratioP2;P2;SDS_P1;SDS_P2;PMS_P1;PMS_P2;Temp;Humidity;BMP_temperature;BMP_pressure;BME280_temperature;BME280_humidity;BME280_pressure;Samples;Min_cycle;Max_cycle;Signal;HPM_P1;HPM_P2
2022/03/01 00:00:19;;;;;;;7.68;4.75;;;;;;;-1.30;62.01;96096.81;5086940;28;20044;-77
2022/03/01 00:02:45;;;;;;;6.47;4.25;;;;;;;-1.26;62.09;96089.59;5068955;28;20453;-78
2022/03/01 00:05:10;;;;;;;6.03;4.13;;;;;;;-1.23;62.52;96092.06;5086650;28;20025;-77
2022/03/01 00:07:36;;;;;;;5.40;4.05;;;;;;;-1.41;62.53;96097.44;5086156;28;20024;-77
2022/03/01 00:10:02;;;;;;;7.03;4.75;;;;;;;-1.31;62.60;96087.22;5087334;28;20035;-77
2022/03/01 00:12:28;;;;;;;7.03;4.03;;;;;;;-1.32;62.71;96087.31;5087846;28;20028;-77
2022/03/01 00:14:53;;;;;;;6.03;4.10;;;;;;;-1.30;62.70;96093.31;5086751;28;20027;-77
2022/03/01 00:17:19;;;;;;;5.03;3.67;;;;;;;-1.37;62.87;96083.16;5086876;28;20032;-76
2022/03/01 00:19:44;;;;;;;5.80;3.85;;;;;;;-1.36;63.32;96084.00;5086455;28;20410;-77
2022/03/01 00:22:09;;;;;;;5.55;3.80;;;;;;;-1.41;63.37;96084.25;5087923;28;20052;-77
2022/03/01 00:24:35;;;;;;;6.70;3.85;;;;;;;-1.43;63.46;96080.88;5085336;28;20040;-77
2022/03/01 00:27:01;;;;;;;7.15;4.20;;;;;;;-1.43;63.70;96072.09;5087302;28;20490;-76
2022/03/01 00:29:26;;;;;;;7.90;4.40;;;;;;;-1.41;63.95;96081.63;5069328;28;20513;-77
2022/03/01 00:31:51;;;;;;;9.52;4.70;;;;;;;-1.38;64.28;96070.94;5068272;28;20027;-77
2022/03/01 00:34:17;;;;;;;8.45;4.60;;;;;;;-1.44;64.02;96070.44;5086599;28;20020;-77
2022/03/01 00:36:42;;;;;;;7.03;4.22;;;;;;;-1.52;64.21;96062.97;5084093;28;20032;-77
2022/03/01 00:39:08;;;;;;;7.30;4.57;;;;;;;-1.46;64.55;96064.38;5069428;28;20086;-77
2022/03/01 00:41:33;;;;;;;10.63;4.75;;;;;;;-1.54;63.95;96070.94;5086432;28;20047;-76
2022/03/01 00:43:59;;;;;;;9.63;4.63;;;;;;;-1.62;64.38;96063.50;5087091;28;20035;-77
2022/03/01 00:46:26;;;;;;;6.13;4.10;;;;;;;-1.56;64.79;96066.69;5085615;28;20049;-77
2022/03/01 00:48:53;;;;;;;6.00;4.00;;;;;;;-1.57;64.29;96062.38;5085223;28;20028;-77
2022/03/01 00:51:18;;;;;;;8.02;4.60;;;;;;;-1.52;64.66;96061.19;5087316;28;20024;-78
2022/03/01 00:53:44;;;;;;;7.70;4.40;;;;;;;-1.62;64.03;96052.13;5084555;28;20035;-78
2022/03/01 00:56:09;;;;;;;7.00;4.47;;;;;;;-1.65;64.35;96047.88;5086210;28;20024;-79
2022/03/01 00:58:34;;;;;;;9.32;4.63;;;;;;;-1.59;64.61;96040.56;5085826;28;20028;-78
2022/03/01 01:01:00;;;;;;;8.48;4.57;;;;;;;-1.56;64.77;96041.25;5085494;28;20040;-77
2022/03/01 01:03:25;;;;;;;8.60;4.93;;;;;;;-1.64;64.21;96039.03;5086154;28;20028;-77
2022/03/01 01:05:51;;;;;;;7.57;5.03;;;;;;;-1.56;64.03;96040.38;5085262;28;20024;-77
2022/03/01 01:08:16;;;;;;;9.65;5.35;;;;;;;-1.56;64.50;96035.13;5085432;28;20024;-78
2022/03/01 01:10:41;;;;;;;8.23;5.20;;;;;;;-1.55;64.09;96037.69;5084700;28;20024;-77
2022/03/01 01:13:07;;;;;;;9.27;5.50;;;;;;;-1.72;65.28;96041.25;5085677;28;20020;-78
2022/03/01 01:15:32;;;;;;;11.32;5.35;;;;;;;-1.72;65.71;96043.03;5084557;28;20106;-78
2022/03/01 01:17:58;;;;;;;8.38;5.28;;;;;;;-1.70;65.44;96049.06;5069537;28;20020;-78
2022/03/01 01:20:23;;;;;;;8.65;5.53;;;;;;;-1.69;65.09;96050.78;5084467;28;20412;-78
2022/03/01 01:22:49;;;;;;;15.65;7.68;;;;;;;-1.56;64.08;96048.28;5086538;28;20031;-77
2022/03/01 01:25:19;;;;;;;11.10;6.28;;;;;;;-1.45;63.92;96048.50;5083516;28;20085;-77
2022/03/01 01:27:47;;;;;;;11.65;6.43;;;;;;;-1.56;64.75;96049.13;5067649;28;20035;-77
2022/03/01 01:30:20;;;;;;;9.48;5.82;;;;;;;-1.71;65.44;96042.97;5084412;28;20032;-77
2022/03/01 01:32:48;;;;;;;9.10;5.65;;;;;;;-1.56;64.87;96041.25;5085156;28;20028;-77
2022/03/01 01:35:13;;;;;;;8.82;5.47;;;;;;;-1.67;65.38;96039.22;5069372;28;20039;-77
2022/03/01 01:37:39;;;;;;;8.88;5.50;;;;;;;-1.70;65.21;96034.13;5067452;28;20036;-79
2022/03/01 01:40:06;;;;;;;8.23;5.20;;;;;;;-1.75;64.91;96042.28;5068401;28;20482;-77
2022/03/01 01:42:31;;;;;;;7.88;4.72;;;;;;;-1.70;65.06;96033.28;5085786;28;20027;-78
2022/03/01 01:44:57;;;;;;;7.60;5.13;;;;;;;-1.63;64.23;96030.22;5084841;28;20040;-77
2022/03/01 01:47:22;;;;;;;8.02;5.00;;;;;;;-1.53;63.59;96024.44;5068259;28;20494;-77
2022/03/01 01:49:47;;;;;;;7.13;4.90;;;;;;;-1.64;64.64;96023.25;5071318;28;20051;-77
2022/03/01 01:52:13;;;;;;;7.72;5.22;;;;;;;-1.73;64.31;96023.78;5089654;28;20016;-77
2022/03/01 01:54:38;;;;;;;8.02;5.20;;;;;;;-1.77;64.66;96022.25;5071197;28;20047;-77
2022/03/01 01:57:18;;;;;;;9.30;5.45;;;;;;;-1.63;64.40;96018.84;5072371;28;20020;-77
2022/03/01 01:59:44;;;;;;;10.98;6.55;;;;;;;-1.77;64.96;96024.88;5088351;28;20024;-77
2022/03/01 02:02:14;;;;;;;10.05;5.78;;;;;;;-1.68;64.83;96016.50;5071750;28;20047;-76
2022/03/01 02:04:39;;;;;;;9.50;5.57;;;;;;;-1.72;65.66;96019.34;5056040;28;20122;-77
2022/03/01 02:07:05;;;;;;;12.57;6.10;;;;;;;-1.80;65.38;96022.41;5071001;28;20458;-77
2022/03/01 02:09:30;;;;;;;8.23;5.53;;;;;;;-1.77;65.26;96016.97;5089604;28;20039;-77
2022/03/01 02:11:56;;;;;;;11.15;6.22;;;;;;;-1.69;64.11;96013.94;5089048;28;20077;-78
2022/03/01 02:14:21;;;;;;;9.77;6.43;;;;;;;-1.66;64.41;96009.34;5055591;28;20329;-77
2022/03/01 02:16:47;;;;;;;12.43;6.85;;;;;;;-1.80;64.66;96009.28;5089351;28;20020;-77
2022/03/01 02:19:12;;;;;;;9.07;5.30;;;;;;;-1.77;64.12;96006.47;5088653;28;20723;-77
2022/03/01 02:21:48;;;;;;;10.30;6.20;;;;;;;-1.69;64.20;95995.53;5071519;28;20474;-76
2022/03/01 02:24:15;;;;;;;8.25;5.50;;;;;;;-1.62;63.81;95987.19;5070964;28;20024;-77
2022/03/01 02:26:40;;;;;;;10.45;6.25;;;;;;;-1.81;64.47;95984.78;5090284;28;20024;-77
2022/03/01 02:29:06;;;;;;;10.20;6.32;;;;;;;-1.81;64.05;95976.88;5088515;28;20043;-77
2022/03/01 02:31:31;;;;;;;13.65;6.22;;;;;;;-1.81;63.94;95979.50;5090222;28;20509;-76
2022/03/01 02:33:57;;;;;;;10.00;6.20;;;;;;;-1.92;64.12;95969.56;5088934;28;20478;-77
2022/03/01 02:36:23;;;;;;;8.82;5.85;;;;;;;-1.82;64.09;95966.44;5089810;28;20024;-77
2022/03/01 02:38:48;;;;;;;10.15;5.80;;;;;;;-1.87;64.03;95969.34;5089389;28;20050;-77
2022/03/01 02:41:14;;;;;;;9.32;6.45;;;;;;;-1.91;64.19;95967.81;5087599;28;20490;-77
2022/03/01 02:43:39;;;;;;;9.52;5.43;;;;;;;-1.88;64.21;95973.75;5089731;28;20020;-77
2022/03/01 02:46:05;;;;;;;10.45;6.07;;;;;;;-1.90;64.04;95972.13;5087669;28;20024;-78
2022/03/01 02:48:30;;;;;;;12.63;6.45;;;;;;;-1.93;64.09;95969.66;5089951;28;20100;-76
2022/03/01 02:50:55;;;;;;;8.27;5.75;;;;;;;-1.85;63.73;95972.72;5088521;28;20031;-76
2022/03/01 02:53:21;;;;;;;11.23;6.28;;;;;;;-2.02;64.52;95969.28;5071559;28;20388;-77
2022/03/01 02:55:46;;;;;;;9.07;6.22;;;;;;;-2.00;64.54;95979.69;5087093;28;20456;-77
2022/03/01 02:58:12;;;;;;;8.65;5.30;;;;;;;-2.03;65.31;95978.06;5089093;28;20517;-78
2022/03/01 03:00:38;;;;;;;11.18;6.57;;;;;;;-2.10;65.39;95989.88;5088592;28;20040;-78
2022/03/01 03:03:03;;;;;;;10.32;6.60;;;;;;;-2.22;65.66;95988.75;5088948;28;20077;-78
2022/03/01 03:05:29;;;;;;;8.50;5.50;;;;;;;-2.20;65.23;95994.78;5089420;28;20410;-77
2022/03/01 03:07:55;;;;;;;13.27;6.72;;;;;;;-2.16;64.83;95995.47;5086933;28;20020;-76
2022/03/01 03:10:20;;;;;;;9.85;6.40;;;;;;;-2.09;65.09;95985.44;5089631;28;20046;-77
2022/03/01 03:12:46;;;;;;;11.25;6.95;;;;;;;-2.13;65.05;95990.88;5086397;28;20387;-77
2022/03/01 03:15:11;;;;;;;10.73;6.82;;;;;;;-2.15;65.42;95989.28;5087998;28;20023;-77
2022/03/01 03:17:37;;;;;;;12.10;6.85;;;;;;;-2.09;65.52;95985.44;5086853;28;20042;-78
2022/03/01 03:20:03;;;;;;;11.85;7.10;;;;;;;-2.12;65.39;96002.25;5087609;28;20043;-79
2022/03/01 03:22:29;;;;;;;12.70;6.75;;;;;;;-2.13;66.40;96001.38;5087516;28;20097;-78
2022/03/01 03:24:55;;;;;;;14.07;8.20;;;;;;;-2.00;66.45;95998.94;5086829;28;20406;-78
2022/03/01 03:27:20;;;;;;;8.85;6.43;;;;;;;-2.07;65.49;95997.59;5089062;28;20036;-78
2022/03/01 03:29:46;;;;;;;13.60;7.75;;;;;;;-2.21;66.18;96003.63;5087617;28;20338;-78
2022/03/01 03:32:11;;;;;;;13.73;7.78;;;;;;;-2.19;66.84;96001.72;5089334;28;20028;-77
2022/03/01 03:34:37;;;;;;;16.85;8.40;;;;;;;-2.15;66.01;95990.13;5086405;28;20428;-77
2022/03/01 03:37:03;;;;;;;16.42;7.63;;;;;;;-2.11;65.73;95996.91;5088849;28;20436;-77
2022/03/01 03:39:29;;;;;;;14.77;8.45;;;;;;;-2.12;65.21;95997.00;5088276;28;20024;-77
2022/03/01 03:41:54;;;;;;;12.82;7.28;;;;;;;-2.09;65.34;95998.59;5087417;28;20661;-78
2022/03/01 03:44:19;;;;;;;9.70;6.63;;;;;;;-2.01;64.59;95999.03;5089173;28;20027;-78
2022/03/01 03:46:45;;;;;;;9.55;6.30;;;;;;;-2.09;64.24;95990.72;5085855;28;20020;-77
2022/03/01 03:49:10;;;;;;;12.00;7.05;;;;;;;-2.14;64.00;95998.84;5088976;28;20095;-77
2022/03/01 03:51:36;;;;;;;11.55;7.63;;;;;;;-2.26;65.66;96003.00;5087151;28;20398;-77
2022/03/01 03:54:01;;;;;;;14.00;8.02;;;;;;;-2.25;65.79;96002.94;5070726;28;20024;-79
2022/03/01 03:56:26;;;;;;;16.08;7.15;;;;;;;-2.17;64.98;95996.38;5085779;28;20406;-78
2022/03/01 03:58:55;;;;;;;154.18;68.47;;;;;;;-2.17;65.28;95992.00;5088264;28;20028;-77
2022/03/01 04:01:21;;;;;;;151.93;66.00;;;;;;;-2.21;65.40;95994.88;5087862;28;20040;-77
2022/03/01 04:03:46;;;;;;;53.60;27.15;;;;;;;-2.27;65.26;95989.00;5069187;28;20024;-77
2022/03/01 04:06:12;;;;;;;21.63;12.98;;;;;;;-2.27;65.25;95993.41;5088626;28;20024;-78
2022/03/01 04:08:37;;;;;;;18.15;9.98;;;;;;;-2.25;64.76;95996.81;5085204;28;20035;-77
2022/03/01 04:11:03;;;;;;;86.05;49.75;;;;;;;-2.33;65.20;95994.59;5087763;28;20495;-77
2022/03/01 04:13:28;;;;;;;28.77;17.38;;;;;;;-2.29;65.05;95996.13;5085509;28;20016;-76
2022/03/01 04:15:54;;;;;;;21.98;12.10;;;;;;;-2.33;65.32;95997.25;5087835;28;20339;-77
2022/03/01 04:18:19;;;;;;;18.83;11.15;;;;;;;-2.51;66.51;96001.69;5085822;28;20028;-77
2022/03/01 04:20:44;;;;;;;19.50;10.48;;;;;;;-2.59;66.00;95998.63;5087394;28;20032;-77
2022/03/01 04:23:10;;;;;;;22.05;11.30;;;;;;;-2.64;66.65;95997.09;5069704;28;20032;-77
2022/03/01 04:25:35;;;;;;;24.52;11.50;;;;;;;-2.57;66.09;96005.50;5085283;28;20023;-78
2022/03/01 04:28:01;;;;;;;21.33;11.13;;;;;;;-2.75;67.15;96002.06;5089127;28;20031;-77
2022/03/01 04:30:27;;;;;;;20.73;12.27;;;;;;;-2.86;68.17;95998.25;5085047;28;20038;-78
2022/03/01 04:32:53;;;;;;;24.23;11.48;;;;;;;-2.90;67.46;96001.94;5087804;28;20035;-78
2022/03/01 04:35:18;;;;;;;26.17;13.80;;;;;;;-3.01;68.96;96009.53;5068251;28;20051;-78
2022/03/01 04:37:44;;;;;;;24.98;13.38;;;;;;;-2.99;68.71;96002.44;5085996;28;20078;-78
2022/03/01 04:40:10;;;;;;;24.67;12.93;;;;;;;-3.04;69.39;96007.06;5085842;28;20020;-78
2022/03/01 04:42:36;;;;;;;21.42;12.07;;;;;;;-3.06;68.85;96001.88;5085468;28;20032;-80
2022/03/01 04:45:03;;;;;;;26.60;14.00;;;;;;;-2.99;69.34;95998.03;5068946;28;20027;-78
2022/03/01 04:47:28;;;;;;;24.20;13.32;;;;;;;-2.98;69.62;96006.72;5084913;28;20112;-78
2022/03/01 04:49:53;;;;;;;28.35;13.80;;;;;;;-3.06;69.67;96001.88;5086440;28;20526;-78
2022/03/01 04:52:19;;;;;;;30.13;15.32;;;;;;;-3.18;69.84;96006.00;5086272;28;20132;-78
2022/03/01 04:54:45;;;;;;;29.92;15.88;;;;;;;-3.05;69.80;96002.75;5087333;28;20522;-76
2022/03/01 04:57:10;;;;;;;27.75;15.95;;;;;;;-2.98;69.26;95998.88;5085029;28;20031;-78
2022/03/01 04:59:37;;;;;;;28.10;15.23;;;;;;;-2.91;69.60;96010.75;5081471;28;20278;-78
2022/03/01 05:02:02;;;;;;;31.40;16.13;;;;;;;-3.07;70.14;96007.22;5079815;28;20075;-78
2022/03/01 05:04:28;;;;;;;25.80;14.02;;;;;;;-3.15;69.99;96012.84;5083774;28;20047;-78
2022/03/01 05:06:54;;;;;;;31.45;15.02;;;;;;;-3.17;70.24;96009.47;5042831;28;20024;-78
2022/03/01 05:09:21;;;;;;;28.55;14.30;;;;;;;-3.07;69.91;96007.22;5062785;28;20126;-78
2022/03/01 05:11:50;;;;;;;34.17;18.33;;;;;;;-3.13;69.50;96011.00;5083181;28;20028;-78
2022/03/01 05:14:16;;;;;;;35.95;19.02;;;;;;;-3.19;69.86;96008.72;5081818;28;20024;-78
2022/03/01 05:16:41;;;;;;;48.55;23.10;;;;;;;-3.11;69.74;96015.25;5064106;28;20026;-77
2022/03/01 05:19:09;;;;;;;38.28;20.90;;;;;;;-3.14;69.79;96010.16;5080302;28;20044;-77
2022/03/01 05:21:34;;;;;;;34.85;18.20;;;;;;;-3.16;69.90;96012.00;5063028;28;20032;-78
2022/03/01 05:24:00;;;;;;;40.08;18.17;;;;;;;-3.15;69.55;96008.47;5063928;28;20028;-77
2022/03/01 05:26:25;;;;;;;37.00;19.17;;;;;;;-3.17;69.43;96015.56;5063832;28;20021;-79
2022/03/01 05:28:51;;;;;;;36.60;20.23;;;;;;;-3.08;69.18;96018.66;5082162;28;20028;-78
2022/03/01 05:31:17;;;;;;;36.90;19.02;;;;;;;-3.06;68.56;96020.25;5080078;28;20035;-76
2022/03/01 05:33:43;;;;;;;36.85;20.17;;;;;;;-3.03;68.62;96016.66;5083429;28;20039;-78
2022/03/01 05:36:09;;;;;;;36.97;20.45;;;;;;;-2.90;67.81;96012.44;5082389;28;20016;-79
2022/03/01 05:38:35;;;;;;;32.80;17.25;;;;;;;-2.87;67.82;96019.34;5080993;28;20036;-77
2022/03/01 05:41:04;;;;;;;33.45;18.23;;;;;;;-2.74;67.89;96017.75;5080852;28;20410;-80
2022/03/01 05:43:30;;;;;;;38.50;19.42;;;;;;;-2.57;67.33;96023.03;5084266;28;20024;-84
2022/03/01 05:45:56;;;;;;;40.58;19.52;;;;;;;-2.37;66.60;96022.81;5085959;28;20133;-81
2022/03/01 05:48:21;;;;;;;31.95;17.80;;;;;;;-2.24;67.04;96025.63;5082216;28;20042;-84
2022/03/01 05:50:47;;;;;;;34.35;18.83;;;;;;;-2.11;66.04;96031.06;5082538;28;20085;-83
2022/03/01 05:53:12;;;;;;;37.65;19.83;;;;;;;-1.92;64.86;96029.22;5058665;28;20494;-83
2022/03/01 05:55:38;;;;;;;46.38;20.80;;;;;;;-1.75;63.48;96031.75;5085615;28;20024;-71
2022/03/01 05:58:03;;;;;;;37.80;19.27;;;;;;;-1.66;63.15;96033.00;5085546;28;20477;-71
2022/03/01 06:00:28;;;;;;;39.40;21.73;;;;;;;-1.53;62.55;96040.22;5079835;28;20501;-72
2022/03/01 06:02:54;;;;;;;29.55;16.55;;;;;;;-1.23;62.05;96041.19;5083924;28;20406;-73
2022/03/01 06:05:19;;;;;;;30.00;16.20;;;;;;;-1.07;60.35;96042.00;5082119;28;20497;-71
2022/03/01 06:07:45;;;;;;;31.05;16.80;;;;;;;-0.86;60.63;96049.56;5083908;28;20409;-71
2022/03/01 06:10:10;;;;;;;29.27;18.35;;;;;;;-0.67;59.97;96044.03;5060418;28;20120;-71
2022/03/01 06:12:36;;;;;;;40.00;21.48;;;;;;;-0.48;59.10;96050.81;5081787;28;20119;-70
2022/03/01 06:15:02;;;;;;;65.82;31.55;;;;;;;-0.28;58.54;96051.41;5063306;28;20349;-71
2022/03/01 06:17:28;;;;;;;72.90;33.20;;;;;;;-0.16;57.89;96053.28;5046288;28;20025;-71
2022/03/01 06:19:53;;;;;;;56.25;26.90;;;;;;;0.03;58.22;96052.16;5064279;28;20024;-71
2022/03/01 06:22:19;;;;;;;64.30;30.42;;;;;;;0.19;57.77;96043.25;5062072;28;20032;-71
2022/03/01 06:24:45;;;;;;;55.13;26.60;;;;;;;0.47;56.97;96046.75;5063525;28;20104;-71
2022/03/01 06:27:10;;;;;;;64.95;26.58;;;;;;;0.63;55.93;96048.41;5078144;28;20032;-70
2022/03/01 06:29:36;;;;;;;61.65;25.75;;;;;;;0.66;56.24;96053.50;5063462;28;20020;-71
2022/03/01 06:32:02;;;;;;;56.65;25.17;;;;;;;0.90;56.32;96039.59;5080067;28;20031;-71
2022/03/01 06:34:27;;;;;;;55.20;26.17;;;;;;;1.06;54.96;96048.22;5066110;28;20415;-71
2022/03/01 06:36:53;;;;;;;56.75;26.00;;;;;;;1.22;54.58;96044.53;5084785;28;20411;-70
2022/03/01 06:39:18;;;;;;;51.47;23.42;;;;;;;1.35;54.95;96045.38;5067438;28;20435;-70
2022/03/01 06:41:43;;;;;;;53.55;26.00;;;;;;;1.59;54.35;96043.81;5068362;28;20497;-70
2022/03/01 06:44:09;;;;;;;48.00;23.70;;;;;;;1.78;53.98;96040.72;5068268;28;20031;-70
2022/03/01 06:46:34;;;;;;;50.40;24.73;;;;;;;1.97;52.88;96044.72;5069750;28;20434;-70
2022/03/01 06:49:00;;;;;;;48.10;24.17;;;;;;;2.09;52.53;96040.38;5068106;28;20025;-70
2022/03/01 06:51:25;;;;;;;51.45;24.23;;;;;;;2.29;52.36;96043.41;5069521;28;20570;-69
2022/03/01 06:53:51;;;;;;;51.80;23.08;;;;;;;2.46;51.86;96037.72;5083912;28;20025;-70
2022/03/01 06:56:16;;;;;;;51.95;22.98;;;;;;;2.54;52.75;96033.66;5067689;28;20044;-71
2022/03/01 06:58:41;;;;;;;46.17;22.42;;;;;;;2.72;52.17;96042.06;5067782;28;20029;-70
2022/03/01 07:01:07;;;;;;;44.22;21.83;;;;;;;2.84;51.75;96035.00;5066917;28;20055;-71
2022/03/01 07:03:34;;;;;;;43.63;20.80;;;;;;;3.05;50.75;96039.66;5069213;28;20074;-70
2022/03/01 07:05:59;;;;;;;31.25;17.85;;;;;;;3.20;50.27;96037.66;5067809;28;20017;-71
2022/03/01 07:08:25;;;;;;;31.75;17.30;;;;;;;3.39;49.22;96042.41;5069224;28;20069;-71
2022/03/01 07:10:51;;;;;;;20.55;13.15;;;;;;;3.32;49.53;96042.03;5083419;28;20490;-69
2022/03/01 07:13:17;;;;;;;23.58;14.57;;;;;;;3.54;49.38;96042.19;5067642;28;20056;-71
2022/03/01 07:15:42;;;;;;;16.58;10.77;;;;;;;3.75;47.92;96042.34;5068303;28;20047;-70
2022/03/01 07:18:07;;;;;;;21.33;12.05;;;;;;;3.89;48.27;96035.97;5068669;28;20043;-70
2022/03/01 07:20:34;;;;;;;18.95;11.45;;;;;;;3.86;47.72;96043.31;5068619;28;20037;-70
2022/03/01 07:23:00;;;;;;;17.98;11.23;;;;;;;3.80;47.51;96040.19;5066587;28;20486;-69
2022/03/01 07:25:26;;;;;;;19.23;10.77;;;;;;;3.76;47.88;96044.03;5084433;28;20466;-70
2022/03/01 07:27:52;;;;;;;19.13;11.18;;;;;;;3.72;48.71;96042.59;5065904;28;20040;-70
2022/03/01 07:30:18;;;;;;;19.75;11.38;;;;;;;3.93;47.84;96045.34;5067681;28;20507;-70
2022/03/01 07:32:44;;;;;;;18.73;12.30;;;;;;;3.74;48.51;96045.94;5082776;28;20044;-71
2022/03/01 07:35:09;;;;;;;15.30;11.02;;;;;;;3.92;47.84;96040.16;5067202;28;20109;-70
2022/03/01 07:37:37;;;;;;;18.88;11.68;;;;;;;4.15;47.01;96040.16;5066708;28;20040;-72
2022/03/01 07:40:05;;;;;;;21.38;12.23;;;;;;;4.18;47.20;96040.78;5067843;28;20029;-71
2022/03/01 07:42:31;;;;;;;20.02;12.10;;;;;;;4.12;47.11;96040.41;5067608;28;20024;-70
2022/03/01 07:44:56;;;;;;;12.80;8.00;;;;;;;4.05;46.89;96035.59;5066608;28;20036;-71
2022/03/01 07:47:23;;;;;;;12.05;7.00;;;;;;;4.05;47.68;96032.94;5068592;28;20032;-71
2022/03/01 07:49:49;;;;;;;12.75;7.10;;;;;;;4.27;46.99;96030.41;5065760;28;20020;-69
2022/03/01 07:52:15;;;;;;;11.32;6.93;;;;;;;4.30;46.81;96028.34;5068401;28;20028;-70
2022/03/01 07:54:40;;;;;;;9.95;6.20;;;;;;;4.33;46.44;96027.25;5067727;28;20451;-70
2022/03/01 07:57:05;;;;;;;11.68;6.63;;;;;;;4.24;46.73;96020.84;5066302;28;20032;-70
2022/03/01 07:59:31;;;;;;;9.65;6.88;;;;;;;4.07;46.54;96028.38;5067959;28;20031;-70
2022/03/01 08:01:56;;;;;;;14.95;6.57;;;;;;;4.12;47.18;96032.44;5065504;28;20044;-71
2022/03/01 08:04:22;;;;;;;8.73;6.00;;;;;;;4.21;47.14;96023.75;5068433;28;20468;-71
2022/03/01 08:06:49;;;;;;;9.90;6.38;;;;;;;4.14;47.68;96028.72;5066603;28;20457;-71
2022/03/01 08:09:14;;;;;;;10.50;6.40;;;;;;;4.18;47.38;96035.47;5068192;28;20396;-70
2022/03/01 08:11:39;;;;;;;9.38;5.50;;;;;;;3.83;47.33;96037.31;5066806;28;20028;-70
2022/03/01 08:14:05;;;;;;;7.28;5.13;;;;;;;3.48;48.31;96034.72;5067928;28;20024;-70
2022/03/01 08:16:30;;;;;;;8.88;5.65;;;;;;;3.77;48.48;96037.75;5067499;28;20025;-70
2022/03/01 08:18:56;;;;;;;9.90;6.43;;;;;;;3.91;48.62;96033.19;5065413;28;20020;-70
2022/03/01 08:21:21;;;;;;;9.02;6.07;;;;;;;4.05;47.98;96038.25;5067924;28;20020;-70
2022/03/01 08:23:46;;;;;;;10.10;6.88;;;;;;;4.14;47.55;96033.19;5066199;28;20033;-70
2022/03/01 08:26:12;;;;;;;10.05;6.28;;;;;;;3.94;48.23;96043.56;5068054;28;20086;-70
2022/03/01 08:28:37;;;;;;;10.43;6.05;;;;;;;3.93;47.64;96039.22;5066146;28;20032;-70
2022/03/01 08:31:03;;;;;;;10.70;5.93;;;;;;;3.94;47.30;96032.94;5067723;28;20032;-72
2022/03/01 08:33:29;;;;;;;8.00;5.68;;;;;;;4.17;47.31;96041.75;5066542;28;20027;-70
2022/03/01 08:35:55;;;;;;;8.95;5.68;;;;;;;4.30;47.44;96046.09;5065439;28;20086;-70
2022/03/01 08:38:21;;;;;;;11.60;5.95;;;;;;;4.34;47.28;96042.19;5065985;28;20039;-70
2022/03/01 08:40:47;;;;;;;7.97;5.35;;;;;;;4.34;46.31;96042.19;5065951;28;20457;-70
2022/03/01 08:43:15;;;;;;;8.82;5.72;;;;;;;4.37;46.98;96043.78;5066394;28;20101;-70
2022/03/01 08:45:41;;;;;;;9.18;5.97;;;;;;;4.43;46.46;96041.47;5065541;28;20036;-71
2022/03/01 08:48:06;;;;;;;8.13;5.78;;;;;;;4.39;46.40;96031.19;5067981;28;20017;-71
2022/03/01 08:50:32;;;;;;;8.70;5.82;;;;;;;4.54;46.20;96034.44;5065939;28;20023;-70
2022/03/01 08:52:58;;;;;;;7.40;5.55;;;;;;;4.54;45.52;96029.97;5066126;28;20051;-69
2022/03/01 08:55:24;;;;;;;7.88;5.60;;;;;;;4.31;45.50;96032.69;5048764;28;20411;-70
2022/03/01 08:57:49;;;;;;;8.43;5.07;;;;;;;3.95;46.53;96035.47;5064184;28;20048;-70
2022/03/01 09:00:16;;;;;;;9.15;5.80;;;;;;;3.79;46.75;96033.19;5066996;28;20024;-70
2022/03/01 09:02:41;;;;;;;9.20;5.72;;;;;;;3.91;46.56;96035.84;5064132;28;20024;-72
2022/03/01 09:05:09;;;;;;;7.90;5.47;;;;;;;3.98;46.38;96038.88;5067677;28;20276;-70
2022/03/01 09:07:35;;;;;;;7.15;5.57;;;;;;;3.97;45.79;96035.34;5065539;28;20048;-71
2022/03/01 09:10:01;;;;;;;9.20;6.57;;;;;;;4.11;46.46;96038.75;5065358;28;20058;-71
2022/03/01 09:12:26;;;;;;;10.00;6.55;;;;;;;4.13;46.90;96034.13;5064654;28;20372;-70
2022/03/01 09:14:52;;;;;;;9.88;5.45;;;;;;;4.25;46.86;96029.66;5064680;28;20483;-70
2022/03/01 09:17:17;;;;;;;11.40;5.85;;;;;;;4.32;47.31;96031.69;5066529;28;20409;-70
2022/03/01 09:19:43;;;;;;;8.23;5.20;;;;;;;4.31;46.70;96040.66;5064177;28;20021;-70
2022/03/01 09:22:09;;;;;;;7.20;5.80;;;;;;;4.02;46.19;96033.19;5065454;28;20029;-70
2022/03/01 09:24:34;;;;;;;8.30;6.10;;;;;;;4.20;48.20;96040.66;5065260;28;20576;-72
2022/03/01 09:27:02;;;;;;;8.95;5.70;;;;;;;4.39;48.13;96033.84;5066518;28;20024;-71
2022/03/01 09:29:30;;;;;;;10.10;5.85;;;;;;;3.91;47.79;96042.00;5065493;28;20030;-70
2022/03/01 09:31:56;;;;;;;8.32;5.47;;;;;;;4.13;46.48;96042.09;5066598;28;20028;-70
2022/03/01 09:34:22;;;;;;;8.93;5.10;;;;;;;4.12;46.35;96043.94;5064860;28;20031;-71
2022/03/01 09:36:47;;;;;;;7.75;5.80;;;;;;;3.78;47.84;96047.41;5064327;28;20028;-70
2022/03/01 09:39:13;;;;;;;8.45;5.65;;;;;;;3.86;48.63;96040.66;5065124;28;20036;-70
2022/03/01 09:41:38;;;;;;;9.30;6.05;;;;;;;3.48;47.85;96037.38;5063799;28;20410;-70
2022/03/01 09:44:04;;;;;;;7.65;5.05;;;;;;;3.62;47.08;96047.75;5065392;28;20025;-71
2022/03/01 09:46:30;;;;;;;8.23;5.28;;;;;;;3.75;48.55;96034.41;5030645;28;20037;-71
2022/03/01 09:48:56;;;;;;;7.13;5.28;;;;;;;3.68;50.30;96038.47;5065150;28;20422;-70
2022/03/01 09:51:21;;;;;;;7.88;4.93;;;;;;;3.56;48.71;96038.47;5047553;28;20025;-71
2022/03/01 09:53:48;;;;;;;7.18;4.90;;;;;;;3.28;50.44;96045.88;5064632;28;20553;-69
2022/03/01 09:56:14;;;;;;;8.20;5.07;;;;;;;3.03;51.80;96047.72;5048171;28;20410;-70
2022/03/01 09:58:39;;;;;;;8.43;5.05;;;;;;;2.86;51.61;96040.19;5063719;28;20479;-69
2022/03/01 10:01:05;;;;;;;8.30;5.28;;;;;;;2.47;52.82;96046.50;5048203;28;20049;-70
2022/03/01 10:03:33;;;;;;;9.00;4.93;;;;;;;2.47;50.89;96041.19;5046803;28;20089;-70
2022/03/01 10:06:14;;;;;;;6.57;4.70;;;;;;;2.32;51.83;96043.19;5048745;28;20132;-70
2022/03/01 10:08:40;;;;;;;7.53;5.30;;;;;;;2.33;52.87;96039.56;5064709;28;20036;-70
2022/03/01 10:11:05;;;;;;;8.93;4.82;;;;;;;2.24;52.65;96034.94;5051683;28;20124;-70
2022/03/01 10:13:32;;;;;;;8.13;4.97;;;;;;;2.24;52.58;96038.44;5068804;28;20024;-70
2022/03/01 10:16:08;;;;;;;7.50;4.72;;;;;;;2.28;52.11;96041.69;5067496;28;20040;-70
2022/03/01 10:18:36;;;;;;;6.68;4.90;;;;;;;2.31;50.72;96038.81;5070199;28;20510;-70
2022/03/01 10:21:06;;;;;;;8.77;5.38;;;;;;;2.28;51.73;96039.91;5067311;28;20086;-69
2022/03/01 10:23:32;;;;;;;7.70;5.47;;;;;;;2.28;52.17;96025.81;5052628;28;20581;-70
2022/03/01 10:25:58;;;;;;;7.10;4.65;;;;;;;2.18;50.72;96028.25;5051379;28;20040;-70
2022/03/01 10:28:36;;;;;;;8.38;5.00;;;;;;;2.24;51.10;96030.50;5068930;28;20025;-70
2022/03/01 10:31:15;;;;;;;8.13;4.78;;;;;;;2.15;50.40;96028.50;5070025;28;20032;-70
2022/03/01 10:34:04;;;;;;;7.82;4.88;;;;;;;2.21;50.96;96025.41;5068288;28;20479;-69
2022/03/01 10:36:31;;;;;;;6.57;4.38;;;;;;;2.31;51.17;96021.13;5068031;28;20562;-69
2022/03/01 10:39:02;;;;;;;7.07;4.80;;;;;;;2.37;50.87;96019.00;5068910;28;20040;-69
2022/03/01 10:41:29;;;;;;;8.45;4.95;;;;;;;2.33;50.14;96021.88;5067358;28;20028;-70
2022/03/01 10:43:59;;;;;;;8.30;4.90;;;;;;;2.18;50.55;96020.31;5068392;28;20075;-70
2022/03/01 10:46:27;;;;;;;8.65;5.40;;;;;;;2.19;50.25;96014.91;5068244;28;20028;-71
2022/03/01 10:49:01;;;;;;;8.05;4.72;;;;;;;2.19;50.07;96017.56;5070294;28;20043;-70
2022/03/01 10:51:27;;;;;;;6.72;4.32;;;;;;;2.25;49.86;96007.50;5068048;28;20108;-70
2022/03/01 10:53:52;;;;;;;7.28;4.75;;;;;;;2.29;50.65;96007.16;5069417;28;20078;-70
2022/03/01 10:56:17;;;;;;;8.23;4.47;;;;;;;2.40;50.41;96008.19;5050481;28;20480;-70
2022/03/01 10:58:43;;;;;;;5.40;4.30;;;;;;;2.45;49.81;96008.72;5067280;28;20534;-69
2022/03/01 11:01:09;;;;;;;6.32;4.43;;;;;;;2.53;49.17;96003.69;5069096;28;20116;-71
2022/03/01 11:03:35;;;;;;;7.25;4.75;;;;;;;2.58;49.77;95993.59;5066392;28;20020;-71
2022/03/01 11:06:01;;;;;;;8.50;5.25;;;;;;;2.59;49.80;95987.34;5068186;28;20021;-71
2022/03/01 11:08:36;;;;;;;6.90;4.93;;;;;;;2.67;50.63;95989.44;5066222;28;20403;-70
2022/03/01 11:11:03;;;;;;;9.18;5.72;;;;;;;2.54;51.80;95994.78;5067891;28;20502;-71
2022/03/01 11:13:31;;;;;;;7.55;5.10;;;;;;;2.53;52.65;95987.78;5066777;28;20040;-71
2022/03/01 11:16:14;;;;;;;9.30;5.43;;;;;;;2.59;53.63;95975.91;5067340;28;20020;-69
2022/03/01 11:19:03;;;;;;;8.77;5.50;;;;;;;2.47;52.45;95972.34;5069043;28;20090;-71
2022/03/01 11:21:29;;;;;;;14.93;7.25;;;;;;;2.49;51.88;95973.09;5066802;28;20119;-69
2022/03/01 11:23:55;;;;;;;14.80;8.52;;;;;;;2.51;51.70;95973.84;5067610;28;20078;-70